»·PEaware :: AA1438 KLAS-KSNA

AA1438 :: KLAS-KSNA

FLIGHT INFORMATION

Flight Status: Arrived
Operator: Unknown
More flights by this operator :: More flights under this callsign
Pilot: Branden L. (12254)
Aircraft: MCDONNELL-DOUGLAS MD-82
(MD82)
More flights by this aircraft type
Origin: KLAS McCarran Intl
United States
Destination: KSNA John Wayne-Orange Co
United States
More flights between these airports :: More routes between these airports
Route: MCCRN5 HEC KAYOH7
File this flight plan on PilotEdge
Remarks:
Altitude:
(Current/Filed)
28,000ft
Speed:
(Current/Filed)
275kts
Departed: 14-Mar-19 04:34 PM
Arrived: 14-Mar-19 05:36 PM
Distance/Time
Traveled:
196nm/1:02
Distance/Time
To Go:
Arrived

Flight Plot

Page will automatically refresh every two minutes.

Flight plan parsing failed; only flown route is shown


Map Options




Map Legend


Flown Route
Filed Route
Departure Airport
Arrival Airport
Navaid (VOR, NDB)
Fix

Horizontal Profiles

Position Reports

Time Latitude Longitude Heading Altitude Ground
Speed
14-Mar-19 15:51 36.086859 -115.153597 124 2104ft 0kts
14-Mar-19 15:52 36.086859 -115.153597 124 2104ft 0kts
14-Mar-19 15:53 36.086859 -115.153597 124 2104ft 0kts
14-Mar-19 16:01 36.085000 -115.154842 48 2113ft 0kts
14-Mar-19 16:02 36.085000 -115.154842 48 2113ft 0kts
14-Mar-19 16:03 36.085000 -115.154842 48 2113ft 0kts
14-Mar-19 16:04 36.085000 -115.154842 48 2113ft 0kts
14-Mar-19 16:05 36.085000 -115.154842 48 2113ft 0kts
14-Mar-19 16:06 36.085000 -115.154842 48 2113ft 0kts
14-Mar-19 16:07 36.085000 -115.154842 48 2113ft 0kts
14-Mar-19 16:08 36.085000 -115.154842 48 2113ft 0kts
14-Mar-19 16:09 36.085000 -115.154842 48 2113ft 0kts
14-Mar-19 16:10 36.085000 -115.154842 48 2113ft 0kts
14-Mar-19 16:11 36.085000 -115.154842 48 2113ft 0kts
14-Mar-19 16:12 36.085000 -115.154842 48 2113ft 0kts
14-Mar-19 16:13 36.085000 -115.154842 48 2113ft 0kts
14-Mar-19 16:14 36.085000 -115.154842 48 2113ft 0kts
14-Mar-19 16:15 36.085000 -115.154842 48 2113ft 0kts
14-Mar-19 16:16 36.085000 -115.154842 48 2113ft 0kts
14-Mar-19 16:17 36.085000 -115.154842 48 2113ft 0kts
14-Mar-19 16:18 36.085000 -115.154842 48 2113ft 0kts
14-Mar-19 16:19 36.085000 -115.154842 48 2113ft 0kts
14-Mar-19 16:20 36.085000 -115.154842 48 2113ft 0kts
14-Mar-19 16:21 36.085000 -115.154842 48 2113ft 0kts
14-Mar-19 16:22 36.085000 -115.154842 48 2113ft 0kts
14-Mar-19 16:23 36.085000 -115.154842 48 2113ft 0kts
14-Mar-19 16:24 36.085000 -115.154842 48 2113ft 0kts
14-Mar-19 16:25 36.085000 -115.154842 48 2113ft 0kts
14-Mar-19 16:26 36.085000 -115.154842 48 2113ft 0kts
14-Mar-19 16:27 36.085000 -115.154842 48 2113ft 0kts
14-Mar-19 16:28 36.084879 -115.155009 48 2114ft 0kts
14-Mar-19 16:29 36.084834 -115.155072 48 2114ft 0kts
14-Mar-19 16:30 36.084699 -115.155313 153 2115ft 5kts
14-Mar-19 16:31 36.081060 -115.152276 101 2114ft 28kts
14-Mar-19 16:32 36.078108 -115.147728 131 2103ft 26kts
14-Mar-19 16:33 36.077604 -115.135948 94 2066ft 44kts
14-Mar-19 16:34 36.079222 -115.134446 261 2060ft 12kts
14-Mar-19 16:35 36.078279 -115.141431 268 2083ft 27kts
14-Mar-19 16:36 36.077959 -115.153048 274 2123ft 38kts
14-Mar-19 16:37 36.077635 -115.163273 210 2160ft 2kts
14-Mar-19 16:38 36.077551 -115.163334 210 2161ft 0kts
14-Mar-19 16:39 36.077981 -115.163514 268 2160ft 0kts
14-Mar-19 16:40 36.077981 -115.163514 268 2160ft 0kts
14-Mar-19 16:41 36.078926 -115.164811 21 2161ft 19kts
14-Mar-19 16:42 36.114196 -115.142994 28 2934ft 249kts
14-Mar-19 16:43 36.193459 -115.149945 329 6064ft 345kts
14-Mar-19 16:44 36.223356 -115.247703 242 9653ft 342kts
14-Mar-19 16:45 36.151344 -115.289849 191 9771ft 284kts
14-Mar-19 16:46 36.071555 -115.310011 191 12969ft 302kts
14-Mar-19 16:47 35.987289 -115.331238 191 16504ft 316kts
14-Mar-19 16:48 35.899610 -115.353289 191 19102ft 334kts
14-Mar-19 16:49 35.808863 -115.376050 191 20475ft 332kts
14-Mar-19 16:50 35.734161 -115.435316 230 22704ft 349kts
14-Mar-19 16:51 35.661060 -115.516998 222 23346ft 353kts
14-Mar-19 16:52 35.589462 -115.595867 221 22943ft 346kts
14-Mar-19 16:53 35.520201 -115.673144 221 22715ft 327kts
14-Mar-19 16:54 35.453832 -115.746469 221 22702ft 313kts
14-Mar-19 16:56 35.390113 -115.816685 221 22703ft 302kts
14-Mar-19 16:57 35.328512 -115.884406 221 22704ft 294kts
14-Mar-19 16:58 35.268246 -115.950535 221 22704ft 287kts
14-Mar-19 16:59 35.209171 -116.015228 221 22705ft 282kts
14-Mar-19 17:00 35.151967 -116.077740 221 23035ft 265kts
14-Mar-19 17:01 35.099261 -116.135241 221 23463ft 244kts
14-Mar-19 17:02 35.050220 -116.188635 221 23699ft 234kts
14-Mar-19 17:03 35.000888 -116.242262 221 23711ft 240kts
14-Mar-19 17:04 34.949739 -116.297770 221 23713ft 252kts
14-Mar-19 17:05 34.885111 -116.367762 221 23727ft 355kts
14-Mar-19 17:06 34.808333 -116.443936 217 23695ft 357kts
14-Mar-19 17:07 34.726300 -116.512266 213 23706ft 356kts
14-Mar-19 17:08 34.641903 -116.575522 212 23711ft 357kts
14-Mar-19 17:09 34.578837 -116.667640 229 21876ft 360kts
14-Mar-19 17:10 34.514037 -116.760206 229 19378ft 358kts
14-Mar-19 17:11 34.450860 -116.850047 229 17342ft 343kts
14-Mar-19 17:12 34.389968 -116.936427 229 15330ft 331kts
14-Mar-19 17:13 34.330722 -117.019472 234 13306ft 322kts
14-Mar-19 17:14 34.281669 -117.102006 234 12320ft 284kts
14-Mar-19 17:14 34.235281 -117.155151 192 11072ft 274kts
14-Mar-19 17:16 34.150611 -117.174241 181 10803ft 269kts
14-Mar-19 17:17 34.074743 -117.176356 181 10178ft 270kts
14-Mar-19 17:17 34.012793 -117.178221 181 9334ft 264kts
14-Mar-19 17:18 33.939773 -117.180418 181 8323ft 256kts
14-Mar-19 17:20 33.859869 -117.182875 181 7810ft 244kts
14-Mar-19 17:20 33.820433 -117.217832 276 7829ft 248kts
14-Mar-19 17:21 33.819100 -117.290084 222 7834ft 248kts
14-Mar-19 17:22 33.767540 -117.345509 221 7807ft 247kts
14-Mar-19 17:23 33.715790 -117.400713 221 7807ft 247kts
14-Mar-19 17:24 33.664330 -117.455557 221 7807ft 247kts
14-Mar-19 17:25 33.613788 -117.511876 244 7793ft 247kts
14-Mar-19 17:26 33.651812 -117.565645 331 7816ft 248kts
14-Mar-19 17:27 33.661021 -117.634645 242 7816ft 248kts
14-Mar-19 17:28 33.623267 -117.701796 222 7557ft 251kts
14-Mar-19 17:29 33.570938 -117.757763 221 5799ft 242kts
14-Mar-19 17:30 33.521970 -117.809953 221 3790ft 235kts
14-Mar-19 17:31 33.479579 -117.865606 268 2817ft 225kts
14-Mar-19 17:32 33.527071 -117.884216 19 2821ft 231kts
14-Mar-19 17:33 33.589234 -117.865038 11 2807ft 230kts
14-Mar-19 17:34 33.648905 -117.881729 331 1516ft 189kts
14-Mar-19 17:35 33.682387 -117.863716 114 63ft 0kts
14-Mar-19 17:36 33.681059 -117.862984 170 63ft 10kts
14-Mar-19 17:37 33.678581 -117.863328 151 63ft 7kts

Navigation Log

Ident Type
Flight plan parsing failed, navigation log unavailable